This is the latest recevied weather packets stored in our database for station/object DK0KTL-4. If no packets are shown the sender has not sent any weather packets the latest 1 day(s).
| Time | Temp. | Humidity | Pressure | Rain* | Wind** | Luminosity | Snow |
|---|---|---|---|---|---|---|---|
| 1777987558 | 20° C | 68% | 1006.6 hPa | 0 mm | 0.89 m/s, 57° | - | - |
| 1777986357 | 20.56° C | 66% | 1006.8 hPa | 0 mm | 0.45 m/s, 243° | - | - |
| 1777984555 | 21.67° C | 65% | 1007.1 hPa | 0 mm | 0.45 m/s, 275° | - | - |
| 1777983954 | 21.67° C | 64% | 1007.2 hPa | 0 mm | 0.45 m/s, 275° | - | - |
| 1777983054 | 21.11° C | 64% | 1007.2 hPa | 0 mm | 0.45 m/s, 26° | - | - |
| 1777982153 | 20.56° C | 69% | 1007.3 hPa | 0 mm | 0.89 m/s, 245° | - | - |
| 1777981552 | 20.56° C | 69% | 1007.4 hPa | 0 mm | 0.45 m/s, 5° | - | - |
| 1777980951 | 20° C | 74% | 1007.4 hPa | 0 mm | 0.45 m/s, 318° | - | - |
| 1777979450 | 18.89° C | 77% | 1007.4 hPa | 0 mm | 0.45 m/s, 171° | - | - |
| 1777978849 | 18.33° C | 79% | 1007.7 hPa | 0 mm | 0.89 m/s, 269° | - | - |
| 1777978249 | 17.22° C | 83% | 1007.7 hPa | 0 mm | 0.45 m/s, 261° | - | - |
| 1777977648 | 17.22° C | 83% | 1007.7 hPa | 0 mm | 0.45 m/s, 292° | - | - |
| 1777976147 | 15.56° C | 89% | 1008.3 hPa | 0 mm | 0 m/s | - | - |
| 1777975546 | 15.56° C | 89% | 1008.1 hPa | 0 mm | 0 m/s | - | - |
| 1777975246 | 15.56° C | 90% | 1008.3 hPa | 0 mm | 0 m/s | - | - |
| 1777974645 | 15° C | 90% | 1008.2 hPa | 0 mm | 0 m/s | - | - |
| 1777974345 | 15° C | 91% | 1008.3 hPa | 0 mm | 0 m/s | - | - |
| 1777974045 | 15° C | 89% | 1008.3 hPa | 0 mm | 0.45 m/s, 286° | - | - |
| 1777973745 | 15° C | 90% | 1008.4 hPa | 0 mm | 0.45 m/s, 257° | - | - |
| 1777973444 | 15° C | 90% | 1008.4 hPa | 0 mm | 0.45 m/s, 207° | - | - |
| 1777973144 | 15° C | 89% | 1008.4 hPa | 0 mm | 0 m/s | - | - |
| 1777972844 | 15° C | 89% | 1008.5 hPa | 0 mm | 0.45 m/s, 270° | - | - |
| 1777972243 | 15° C | 90% | 1008.5 hPa | 0 mm | 0 m/s | - | - |
| 1777971642 | 15° C | 89% | 1008.5 hPa | 0 mm | 0 m/s | - | - |
| 1777970741 | 14.44° C | 89% | 1008.5 hPa | 0 mm | 0 m/s | - | - |
* Rain latest hour (hover to see other rain measurements)
** Current wind speed in m/s (hover to see current wind gust speed)